National Weather Service Raw Text Product

Displaying AFOS PIL: TAFMCW Received: 2018-10-12 05:20 UTC


758 
FTUS43 KDMX 120520
TAFMCW
TAF
KMCW 120520Z 1206/1306 29004KT P6SM FEW030 SCT120
     FM120900 VRB02KT P6SM BKN120
     FM122100 28009KT P6SM SCT100
     FM130500 22009KT P6SM BKN090=